sensor_id;sensor_type;location;lat;lon;timestamp;P1;durP1;ratioP1;P2;durP2;ratioP2
40588;SDS011;26297;49.450;6.640;2023-03-09T00:00:25;1.80;;;0.50;;
40588;SDS011;26297;49.450;6.640;2023-03-09T00:03:48;0.63;;;0.30;;
40588;SDS011;26297;49.450;6.640;2023-03-09T00:06:56;0.43;;;0.30;;
40588;SDS011;26297;49.450;6.640;2023-03-09T00:10:00;2.30;;;0.52;;
40588;SDS011;26297;49.450;6.640;2023-03-09T00:13:04;0.82;;;0.20;;
40588;SDS011;26297;49.450;6.640;2023-03-09T00:16:14;1.75;;;0.30;;
40588;SDS011;26297;49.450;6.640;2023-03-09T00:19:26;0.60;;;0.40;;
40588;SDS011;26297;49.450;6.640;2023-03-09T00:22:34;1.92;;;0.40;;
40588;SDS011;26297;49.450;6.640;2023-03-09T00:25:41;1.50;;;0.38;;
40588;SDS011;26297;49.450;6.640;2023-03-09T00:28:46;1.67;;;0.30;;
40588;SDS011;26297;49.450;6.640;2023-03-09T00:31:53;1.85;;;0.40;;
40588;SDS011;26297;49.450;6.640;2023-03-09T00:34:59;1.08;;;0.50;;
40588;SDS011;26297;49.450;6.640;2023-03-09T00:38:03;2.30;;;0.25;;
40588;SDS011;26297;49.450;6.640;2023-03-09T00:41:08;2.58;;;0.70;;
40588;SDS011;26297;49.450;6.640;2023-03-09T00:44:13;0.85;;;0.40;;
40588;SDS011;26297;49.450;6.640;2023-03-09T00:47:18;1.38;;;0.40;;
40588;SDS011;26297;49.450;6.640;2023-03-09T00:50:24;0.95;;;0.30;;
40588;SDS011;26297;49.450;6.640;2023-03-09T00:53:32;0.88;;;0.50;;
40588;SDS011;26297;49.450;6.640;2023-03-09T00:56:36;1.58;;;0.35;;
40588;SDS011;26297;49.450;6.640;2023-03-09T00:59:47;2.35;;;0.40;;
40588;SDS011;26297;49.450;6.640;2023-03-09T01:03:00;1.02;;;0.60;;
40588;SDS011;26297;49.450;6.640;2023-03-09T01:06:08;0.90;;;0.20;;
40588;SDS011;26297;49.450;6.640;2023-03-09T01:09:16;1.00;;;0.35;;
40588;SDS011;26297;49.450;6.640;2023-03-09T01:12:41;0.65;;;0.28;;
40588;SDS011;26297;49.450;6.640;2023-03-09T01:15:56;1.40;;;0.30;;
40588;SDS011;26297;49.450;6.640;2023-03-09T01:19:11;0.20;;;0.20;;
40588;SDS011;26297;49.450;6.640;2023-03-09T01:22:28;1.67;;;0.30;;
40588;SDS011;26297;49.450;6.640;2023-03-09T01:25:37;0.82;;;0.20;;
40588;SDS011;26297;49.450;6.640;2023-03-09T01:28:46;0.50;;;0.25;;
40588;SDS011;26297;49.450;6.640;2023-03-09T01:32:29;0.10;;;0.10;;
40588;SDS011;26297;49.450;6.640;2023-03-09T01:35:33;0.80;;;0.43;;
40588;SDS011;26297;49.450;6.640;2023-03-09T01:38:46;1.13;;;0.20;;
40588;SDS011;26297;49.450;6.640;2023-03-09T01:41:53;0.77;;;0.35;;
40588;SDS011;26297;49.450;6.640;2023-03-09T01:46:10;1.25;;;0.50;;
40588;SDS011;26297;49.450;6.640;2023-03-09T01:48:29;1.17;;;0.10;;
40588;SDS011;26297;49.450;6.640;2023-03-09T01:51:39;0.20;;;0.20;;
40588;SDS011;26297;49.450;6.640;2023-03-09T01:55:20;0.38;;;0.20;;
40588;SDS011;26297;49.450;6.640;2023-03-09T01:58:21;3.05;;;0.68;;
40588;SDS011;26297;49.450;6.640;2023-03-09T02:01:32;2.10;;;0.70;;
40588;SDS011;26297;49.450;6.640;2023-03-09T02:04:42;0.95;;;0.40;;
40588;SDS011;26297;49.450;6.640;2023-03-09T02:08:04;2.65;;;0.40;;
40588;SDS011;26297;49.450;6.640;2023-03-09T02:11:12;0.82;;;0.30;;
40588;SDS011;26297;49.450;6.640;2023-03-09T02:14:22;0.80;;;0.40;;
40588;SDS011;26297;49.450;6.640;2023-03-09T02:17:30;3.65;;;0.40;;
40588;SDS011;26297;49.450;6.640;2023-03-09T02:27:42;3.28;;;0.30;;
40588;SDS011;26297;49.450;6.640;2023-03-09T02:30:49;1.83;;;0.52;;
40588;SDS011;26297;49.450;6.640;2023-03-09T02:34:00;1.35;;;0.35;;
40588;SDS011;26297;49.450;6.640;2023-03-09T02:37:22;1.77;;;0.68;;
40588;SDS011;26297;49.450;6.640;2023-03-09T02:40:34;0.52;;;0.38;;
40588;SDS011;26297;49.450;6.640;2023-03-09T02:43:46;4.88;;;0.60;;
40588;SDS011;26297;49.450;6.640;2023-03-09T02:46:53;2.28;;;0.63;;
40588;SDS011;26297;49.450;6.640;2023-03-09T02:50:01;3.33;;;0.47;;
40588;SDS011;26297;49.450;6.640;2023-03-09T02:53:12;2.92;;;0.32;;
40588;SDS011;26297;49.450;6.640;2023-03-09T02:56:26;0.90;;;0.50;;
40588;SDS011;26297;49.450;6.640;2023-03-09T02:59:39;3.17;;;0.70;;
40588;SDS011;26297;49.450;6.640;2023-03-09T03:02:45;2.72;;;0.77;;
40588;SDS011;26297;49.450;6.640;2023-03-09T03:06:35;4.68;;;1.13;;
40588;SDS011;26297;49.450;6.640;2023-03-09T03:10:38;8.70;;;1.02;;
40588;SDS011;26297;49.450;6.640;2023-03-09T03:14:44;2.50;;;0.60;;
40588;SDS011;26297;49.450;6.640;2023-03-09T03:18:50;3.10;;;0.73;;
40588;SDS011;26297;49.450;6.640;2023-03-09T03:22:58;4.80;;;0.82;;
40588;SDS011;26297;49.450;6.640;2023-03-09T03:27:28;6.68;;;1.23;;
40588;SDS011;26297;49.450;6.640;2023-03-09T03:32:03;4.55;;;0.80;;
40588;SDS011;26297;49.450;6.640;2023-03-09T03:39:57;6.72;;;1.35;;
40588;SDS011;26297;49.450;6.640;2023-03-09T04:02:10;4.53;;;1.33;;
40588;SDS011;26297;49.450;6.640;2023-03-09T04:13:29;5.28;;;0.90;;
40588;SDS011;26297;49.450;6.640;2023-03-09T04:16:44;11.00;;;1.60;;
40588;SDS011;26297;49.450;6.640;2023-03-09T04:19:54;6.78;;;1.60;;
40588;SDS011;26297;49.450;6.640;2023-03-09T04:23:23;2.92;;;0.68;;
40588;SDS011;26297;49.450;6.640;2023-03-09T04:26:39;5.05;;;1.60;;
40588;SDS011;26297;49.450;6.640;2023-03-09T04:30:00;6.90;;;1.38;;
40588;SDS011;26297;49.450;6.640;2023-03-09T04:36:44;4.55;;;1.15;;
40588;SDS011;26297;49.450;6.640;2023-03-09T04:40:38;5.43;;;1.20;;
40588;SDS011;26297;49.450;6.640;2023-03-09T04:43:51;4.95;;;0.80;;
40588;SDS011;26297;49.450;6.640;2023-03-09T04:47:23;4.22;;;1.08;;
40588;SDS011;26297;49.450;6.640;2023-03-09T04:50:38;2.95;;;0.90;;
40588;SDS011;26297;49.450;6.640;2023-03-09T04:54:13;4.10;;;1.17;;
40588;SDS011;26297;49.450;6.640;2023-03-09T04:58:22;10.02;;;2.00;;
40588;SDS011;26297;49.450;6.640;2023-03-09T05:01:50;4.22;;;0.93;;
40588;SDS011;26297;49.450;6.640;2023-03-09T05:05:37;3.72;;;0.95;;
40588;SDS011;26297;49.450;6.640;2023-03-09T05:09:04;3.10;;;1.25;;
40588;SDS011;26297;49.450;6.640;2023-03-09T05:12:24;2.72;;;0.82;;
40588;SDS011;26297;49.450;6.640;2023-03-09T05:16:05;5.20;;;1.13;;
40588;SDS011;26297;49.450;6.640;2023-03-09T05:19:29;5.15;;;0.70;;
40588;SDS011;26297;49.450;6.640;2023-03-09T05:22:47;2.33;;;0.80;;
40588;SDS011;26297;49.450;6.640;2023-03-09T05:32:46;2.88;;;0.70;;
40588;SDS011;26297;49.450;6.640;2023-03-09T05:35:59;3.92;;;0.95;;
40588;SDS011;26297;49.450;6.640;2023-03-09T05:39:37;3.65;;;0.75;;
40588;SDS011;26297;49.450;6.640;2023-03-09T05:43:36;3.75;;;0.90;;
40588;SDS011;26297;49.450;6.640;2023-03-09T05:47:18;3.60;;;0.90;;
40588;SDS011;26297;49.450;6.640;2023-03-09T05:50:51;4.28;;;0.70;;
40588;SDS011;26297;49.450;6.640;2023-03-09T05:54:25;2.25;;;0.70;;
40588;SDS011;26297;49.450;6.640;2023-03-09T05:58:03;2.10;;;0.90;;
40588;SDS011;26297;49.450;6.640;2023-03-09T11:39:00;2.63;;;0.63;;
40588;SDS011;26297;49.450;6.640;2023-03-09T15:49:06;6.50;;;1.52;;
40588;SDS011;26297;49.450;6.640;2023-03-09T17:59:56;5.78;;;1.08;;
